Time;durP1;ratioP1;P1;durP2;ratioP2;P2;SDS_P1;SDS_P2;PMS_P1;PMS_P2;Temp;Humidity;BMP_temperature;BMP_pressure;BME280_temperature;BME280_humidity;BME280_pressure;Samples;Min_cycle;Max_cycle;Signal;HPM_P1;HPM_P2
2022/10/18 00:01:53;;;;;;;;;;;;;;;21.62;64.73;100345.38;7316793;19;129394;-40
2022/10/18 00:04:18;;;;;;;;;;;;;;;21.57;64.62;100345.75;7317005;19;130196;-38
2022/10/18 00:06:44;;;;;;;;;;;;;;;21.59;64.91;100346.47;7311456;19;130433;-39
2022/10/18 00:09:09;;;;;;;;;;;;;;;21.58;65.44;100343.97;7314645;19;129201;-39
2022/10/18 00:11:34;;;;;;;;;;;;;;;21.56;64.91;100351.94;7315067;19;128813;-38
2022/10/18 00:14:00;;;;;;;;;;;;;;;21.57;65.00;100350.97;7314514;19;129587;-40
2022/10/18 00:16:25;;;;;;;;;;;;;;;21.55;64.83;100352.88;7313989;19;130030;-38
2022/10/18 00:18:50;;;;;;;;;;;;;;;21.56;65.00;100359.78;7312760;19;130509;-38
2022/10/18 00:21:19;;;;;;;;;;;;;;;21.56;64.76;100361.56;7314143;19;128917;-39
2022/10/18 00:23:45;;;;;;;;;;;;;;;21.56;65.11;100353.72;7313568;19;129570;-38
2022/10/18 00:26:14;;;;;;;;;;;;;;;21.58;64.76;100359.66;7313935;19;131020;-36
2022/10/18 00:28:39;;;;;;;;;;;;;;;21.56;64.87;100359.78;7315426;19;129109;-38
2022/10/18 00:31:08;;;;;;;;;;;;;;;21.56;64.88;100359.78;7312607;19;129000;-39
2022/10/18 00:33:33;;;;;;;;;;;;;;;21.57;65.12;100350.97;7313159;19;130570;-38
2022/10/18 00:35:59;;;;;;;;;;;;;;;21.57;65.42;100356.22;7314865;19;129201;-39
2022/10/18 00:38:24;;;;;;;;;;;;;;;21.59;64.93;100356.09;7314520;19;129069;-40
2022/10/18 00:40:49;;;;;;;;;;;;;;;21.57;64.83;100361.44;7314444;19;128937;-38
2022/10/18 00:43:16;;;;;;;;;;;;;;;21.58;65.25;100355.28;7313611;19;130946;-39
2022/10/18 00:45:42;;;;;;;;;;;;;;;21.56;65.28;100354.56;7314510;19;129670;-39
2022/10/18 00:48:07;;;;;;;;;;;;;;;21.58;65.05;100346.59;7311209;19;129418;-40
2022/10/18 00:50:33;;;;;;;;;;;;;;;21.57;65.29;100350.97;7313723;19;129773;-39
2022/10/18 00:53:01;;;;;;;;;;;;;;;21.57;65.14;100345.75;7311726;19;130162;-39
2022/10/18 00:55:27;;;;;;;;;;;;;;;21.60;65.18;100348.13;7314384;19;129512;-38
2022/10/18 00:57:52;;;;;;;;;;;;;;;21.59;65.36;100351.69;7311547;19;129229;-40
2022/10/18 01:00:18;;;;;;;;;;;;;;;21.60;64.66;100344.69;7313623;19;129268;-37
2022/10/18 01:02:44;;;;;;;;;;;;;;;21.60;65.18;100345.50;7313763;19;129856;-40
2022/10/18 01:05:14;;;;;;;;;;;;;;;21.56;64.67;100338.84;7312927;19;130395;-38
2022/10/18 01:07:57;;;;;;;;;;;;;;;21.62;65.08;100338.38;7125198;19;3612946;-40
2022/10/18 01:10:22;;;;;;;;;;;;;;;21.58;65.27;100339.56;7316231;19;129546;-40
2022/10/18 01:12:56;;;;;;;;;;;;;;;21.55;64.73;100339.78;7315960;19;130580;-40
2022/10/18 01:15:34;;;;;;;;;;;;;;;21.54;65.48;100348.59;7315139;19;129903;-37
2022/10/18 01:18:16;;;;;;;;;;;;;;;21.61;64.44;100357.66;7313461;19;130019;-39
2022/10/18 01:20:42;;;;;;;;;;;;;;;21.55;64.86;100347.66;7315266;19;131001;-40
2022/10/18 01:23:12;;;;;;;;;;;;;;;21.58;64.91;100354.44;7316306;19;130324;-38
2022/10/18 01:25:54;;;;;;;;;;;;;;;21.57;65.17;100350.97;7311442;19;129842;-40
2022/10/18 01:28:20;;;;;;;;;;;;;;;21.57;65.29;100350.97;7315740;19;129001;-40
2022/10/18 01:30:46;;;;;;;;;;;;;;;21.55;65.49;100352.88;7315171;19;129256;-39
2022/10/18 01:33:17;;;;;;;;;;;;;;;21.53;65.02;100349.56;7310963;19;130226;-40
2022/10/18 01:35:46;;;;;;;;;;;;;;;21.47;65.05;100326.50;7312095;19;132971;-40
2022/10/18 01:38:16;;;;;;;;;;;;;;;21.56;65.56;100344.09;7311741;19;128812;-40
2022/10/18 01:40:43;;;;;;;;;;;;;;;21.56;65.06;100346.72;7315536;19;130414;-39
2022/10/18 01:43:09;;;;;;;;;;;;;;;21.59;64.97;100341.22;7314463;19;130144;-38
2022/10/18 01:45:34;;;;;;;;;;;;;;;21.55;65.49;100345.03;7314000;19;130305;-39
2022/10/18 01:48:00;;;;;;;;;;;;;;;21.60;65.32;100355.97;7312773;19;129530;-41
2022/10/18 01:50:29;;;;;;;;;;;;;;;21.57;65.45;100353.59;7314659;19;129614;-40
2022/10/18 01:52:55;;;;;;;;;;;;;;;21.56;65.12;100349.31;7314734;19;130157;-38
2022/10/18 01:55:42;;;;;;;;;;;;;;;21.56;64.94;100346.72;7314131;19;130365;-38
2022/10/18 01:58:17;;;;;;;;;;;;;;;21.52;65.05;100347.88;7311973;19;129290;-38
2022/10/18 02:00:43;;;;;;;;;;;;;;;21.59;65.26;100354.31;7313517;19;128615;-40
2022/10/18 02:03:19;;;;;;;;;;;;;;;21.60;65.28;100355.16;7312142;19;130948;-39
2022/10/18 02:05:45;;;;;;;;;;;;;;;21.52;65.23;100342.66;7315471;19;129350;-39
2022/10/18 02:08:17;;;;;;;;;;;;;;;21.60;65.02;100340.25;7311042;19;129163;-40
2022/10/18 02:10:45;;;;;;;;;;;;;;;21.58;65.08;100347.44;7312824;19;129048;-39
2022/10/18 02:13:12;;;;;;;;;;;;;;;21.56;64.71;100348.50;7312110;19;130357;-39
2022/10/18 02:15:39;;;;;;;;;;;;;;;21.57;65.54;100345.75;7312263;19;129407;-41
2022/10/18 02:18:07;;;;;;;;;;;;;;;21.57;64.85;100350.97;7309738;19;130200;-40
2022/10/18 02:20:33;;;;;;;;;;;;;;;21.49;65.23;100329.81;7313352;19;128900;-39
2022/10/18 02:23:00;;;;;;;;;;;;;;;21.49;65.10;100327.22;7312821;19;132408;-39
2022/10/18 02:25:27;;;;;;;;;;;;;;;21.57;65.00;100355.38;7314135;19;129521;-40
2022/10/18 02:27:53;;;;;;;;;;;;;;;21.56;65.47;100348.50;7310188;19;129355;-39
2022/10/18 02:30:21;;;;;;;;;;;;;;;21.57;64.86;100350.97;7313652;19;129665;-38
2022/10/18 02:32:57;;;;;;;;;;;;;;;21.48;64.98;100341.25;7312436;19;130432;-39
2022/10/18 02:35:22;;;;;;;;;;;;;;;21.50;65.05;100344.56;7313686;19;130379;-39
2022/10/18 02:37:49;;;;;;;;;;;;;;;21.61;64.86;100352.41;7310704;19;129783;-38
2022/10/18 02:40:15;;;;;;;;;;;;;;;21.58;65.42;100352.66;7310798;19;129786;-38
2022/10/18 02:42:48;;;;;;;;;;;;;;;21.59;64.73;100358.69;7313337;19;130123;-39
2022/10/18 02:45:13;;;;;;;;;;;;;;;21.58;65.17;100352.66;7312616;19;131108;-41
2022/10/18 02:47:39;;;;;;;;;;;;;;;21.60;65.31;100355.16;7311758;19;129289;-39
2022/10/18 02:50:04;;;;;;;;;;;;;;;21.57;64.68;100345.75;7312445;19;129210;-40
2022/10/18 02:52:29;;;;;;;;;;;;;;;21.59;64.93;100343.84;7311980;19;130013;-39
2022/10/18 02:54:54;;;;;;;;;;;;;;;21.58;65.28;100350.03;7310913;19;129647;-37
2022/10/18 02:57:20;;;;;;;;;;;;;;;21.57;65.12;100348.38;7311322;19;129327;-40
2022/10/18 02:59:45;;;;;;;;;;;;;;;21.50;65.16;100334.09;7311090;19;129293;-38
2022/10/18 03:02:10;;;;;;;;;;;;;;;21.60;65.08;100355.16;7311445;19;131587;-40
2022/10/18 03:04:35;;;;;;;;;;;;;;;21.48;65.46;100337.78;7313714;19;129531;-40
2022/10/18 03:07:01;;;;;;;;;;;;;;;21.57;65.29;100350.97;7310213;19;128960;-38
2022/10/18 03:09:26;;;;;;;;;;;;;;;21.55;65.40;100357.31;7312002;19;128954;-40
2022/10/18 03:11:51;;;;;;;;;;;;;;;21.55;65.66;100363.34;7310407;19;129298;-39
2022/10/18 03:14:16;;;;;;;;;;;;;;;21.56;65.36;100365.03;7310883;19;129329;-40
2022/10/18 03:16:42;;;;;;;;;;;;;;;21.59;64.89;100364.78;7310616;19;129844;-40
2022/10/18 03:19:07;;;;;;;;;;;;;;;21.58;64.81;100363.13;7312313;19;129353;-39
2022/10/18 03:21:32;;;;;;;;;;;;;;;21.57;65.37;100369.28;7311028;19;129233;-39
2022/10/18 03:23:58;;;;;;;;;;;;;;;21.55;65.54;100368.56;7310596;19;129622;-38
2022/10/18 03:26:24;;;;;;;;;;;;;;;21.60;64.91;100360.38;7311001;19;129977;-38
2022/10/18 03:28:49;;;;;;;;;;;;;;;21.60;65.31;100368.25;7311502;19;128796;-40
2022/10/18 03:31:14;;;;;;;;;;;;;;;21.52;64.89;100353.13;7312368;19;130146;-39
2022/10/18 03:33:39;;;;;;;;;;;;;;;21.59;64.85;100367.41;7310133;19;130512;-39
2022/10/18 03:36:05;;;;;;;;;;;;;;;21.59;65.53;100370.00;7311313;19;128970;-39
2022/10/18 03:38:30;;;;;;;;;;;;;;;21.60;64.79;100376.91;7309810;19;129060;-38
2022/10/18 03:40:55;;;;;;;;;;;;;;;21.62;64.79;100380.22;7309400;19;129453;-40
2022/10/18 03:43:21;;;;;;;;;;;;;;;21.60;64.96;100371.66;7310319;19;129841;-40
2022/10/18 03:45:46;;;;;;;;;;;;;;;21.57;65.28;100361.44;7312168;19;128980;-39
2022/10/18 03:48:11;;;;;;;;;;;;;;;21.53;65.02;100354.81;7308258;19;131227;-39
2022/10/18 03:50:37;;;;;;;;;;;;;;;21.59;65.35;100359.53;7311730;19;130247;-40
2022/10/18 03:53:02;;;;;;;;;;;;;;;21.62;64.86;100361.06;7308133;19;129247;-38
2022/10/18 03:55:27;;;;;;;;;;;;;;;21.59;65.04;100364.78;7310106;19;129102;-39
2022/10/18 03:57:52;;;;;;;;;;;;;;;21.57;65.49;100361.44;7307727;19;128905;-35
2022/10/18 04:00:18;;;;;;;;;;;;;;;21.60;65.07;100360.38;7314000;19;130158;-38
2022/10/18 04:02:43;;;;;;;;;;;;;;;21.58;65.26;100357.06;7315570;19;130294;-39
2022/10/18 04:05:08;;;;;;;;;;;;;;;21.58;65.30;100357.91;7316993;19;129631;-39
2022/10/18 04:07:34;;;;;;;;;;;;;;;21.58;65.03;100357.91;7315081;19;128942;-40
2022/10/18 04:09:59;;;;;;;;;;;;;;;21.59;64.67;100370.00;7317533;19;129295;-39
2022/10/18 04:12:25;;;;;;;;;;;;;;;21.59;65.19;100363.94;7313489;19;130542;-38
2022/10/18 04:14:50;;;;;;;;;;;;;;;21.57;65.58;100364.06;7317254;19;129415;-38
2022/10/18 04:17:15;;;;;;;;;;;;;;;21.59;64.59;100356.94;7315203;19;128915;-40
2022/10/18 04:19:40;;;;;;;;;;;;;;;21.52;65.12;100337.44;7316998;19;129100;-40
2022/10/18 04:22:06;;;;;;;;;;;;;;;21.60;64.85;100355.16;7315231;19;129713;-40
2022/10/18 04:24:31;;;;;;;;;;;;;;;21.53;64.98;100344.34;7316498;19;129039;-40
2022/10/18 04:26:56;;;;;;;;;;;;;;;21.61;64.93;100359.41;7315333;19;129266;-40
2022/10/18 04:29:21;;;;;;;;;;;;;;;21.63;64.82;100360.13;7317030;19;129280;-40
2022/10/18 04:31:47;;;;;;;;;;;;;;;21.57;65.29;100361.44;7315786;19;131101;-40
2022/10/18 04:34:12;;;;;;;;;;;;;;;21.57;65.48;100361.44;7317383;19;129480;-41
2022/10/18 04:36:37;;;;;;;;;;;;;;;21.60;65.33;100368.25;7315224;19;130211;-38
2022/10/18 04:39:02;;;;;;;;;;;;;;;21.58;65.11;100352.66;7315988;19;131221;-38
2022/10/18 04:41:28;;;;;;;;;;;;;;;21.60;64.67;100355.97;7313020;19;129224;-40
2022/10/18 04:43:53;;;;;;;;;;;;;;;21.59;65.57;100354.31;7314285;19;129345;-39
2022/10/18 04:46:18;;;;;;;;;;;;;;;21.59;64.76;100358.69;7313150;19;129531;-39
2022/10/18 04:48:43;;;;;;;;;;;;;;;21.60;65.41;100366.44;7313007;19;130966;-38
2022/10/18 04:51:09;;;;;;;;;;;;;;;21.61;65.49;100362.03;7314487;19;129850;-39
2022/10/18 04:53:34;;;;;;;;;;;;;;;21.60;65.45;100357.78;7314084;19;129523;-38
2022/10/18 04:55:59;;;;;;;;;;;;;;;21.60;64.74;100361.19;7315672;19;129137;-39
2022/10/18 04:58:24;;;;;;;;;;;;;;;21.58;65.21;100362.28;7316260;19;129137;-39
2022/10/18 05:00:50;;;;;;;;;;;;;;;21.57;65.06;100371.91;7316234;19;130070;-38
2022/10/18 05:03:15;;;;;;;;;;;;;;;21.60;65.06;100366.44;7314009;19;128876;-39
2022/10/18 05:05:40;;;;;;;;;;;;;;;21.60;65.04;100366.44;7315874;19;129173;-38
2022/10/18 05:08:06;;;;;;;;;;;;;;;21.61;64.71;100367.28;7312556;19;129457;-40
2022/10/18 05:10:31;;;;;;;;;;;;;;;21.62;64.50;100364.53;7313454;19;130574;-39
2022/10/18 05:12:56;;;;;;;;;;;;;;;21.62;65.04;100366.31;7313416;19;129128;-38
2022/10/18 05:15:21;;;;;;;;;;;;;;;21.59;65.01;100356.94;7315544;19;129116;-39
2022/10/18 05:17:47;;;;;;;;;;;;;;;21.57;64.84;100361.44;7311910;19;129570;-38
2022/10/18 05:20:12;;;;;;;;;;;;;;;21.58;65.20;100359.66;7314157;19;131067;-40
2022/10/18 05:22:37;;;;;;;;;;;;;;;21.59;65.34;100354.31;7314890;19;129337;-40
2022/10/18 05:25:03;;;;;;;;;;;;;;;21.63;65.21;100360.13;7314833;19;128857;-39
2022/10/18 05:27:28;;;;;;;;;;;;;;;21.61;65.03;100356.81;7313452;19;129316;-38
2022/10/18 05:29:53;;;;;;;;;;;;;;;21.59;65.23;100350.84;7314676;19;130424;-40
2022/10/18 05:32:19;;;;;;;;;;;;;;;21.58;65.51;100352.66;7314340;19;128933;-38
2022/10/18 05:34:44;;;;;;;;;;;;;;;21.59;64.92;100348.25;7314447;19;129219;-41
2022/10/18 05:37:09;;;;;;;;;;;;;;;21.57;64.97;100345.75;7313489;19;129120;-39
2022/10/18 05:39:35;;;;;;;;;;;;;;;21.59;65.13;100343.84;7312796;19;129174;-39
2022/10/18 05:42:01;;;;;;;;;;;;;;;21.58;65.46;100347.44;7315069;19;129548;-38
2022/10/18 05:44:26;;;;;;;;;;;;;;;21.50;65.46;100334.09;7313791;19;130417;-40
2022/10/18 05:46:51;;;;;;;;;;;;;;;21.57;65.20;100350.97;7306862;19;129470;-38
2022/10/18 05:49:17;;;;;;;;;;;;;;;21.63;65.28;100344.44;7312519;19;131004;-40
2022/10/18 05:51:42;;;;;;;;;;;;;;;21.60;65.21;100345.50;7311533;19;130877;-38
2022/10/18 05:54:08;;;;;;;;;;;;;;;21.63;65.32;100340.03;7314970;19;131898;-39
2022/10/18 05:56:34;;;;;;;;;;;;;;;21.62;64.70;100340.97;7310949;19;129079;-39
2022/10/18 05:58:59;;;;;;;;;;;;;;;21.61;65.47;100330.63;7313658;19;129339;-39
2022/10/18 06:01:24;;;;;;;;;;;;;;;21.61;65.05;100318.41;7314585;19;129311;-39
2022/10/18 06:03:50;;;;;;;;;;;;;;;21.51;65.28;100299.16;7313095;19;129113;-38
2022/10/18 06:06:15;;;;;;;;;;;;;;;21.64;64.70;100294.59;7313804;19;131337;-39
2022/10/18 06:08:41;;;;;;;;;;;;;;;21.51;65.63;100272.16;7310566;19;130435;-38
2022/10/18 06:11:07;;;;;;;;;;;;;;;21.58;64.87;100286.41;7313773;19;129289;-40
2022/10/18 06:13:33;;;;;;;;;;;;;;;21.59;64.79;100291.50;7312478;19;129422;-38
2022/10/18 06:15:58;;;;;;;;;;;;;;;21.55;65.62;100300.53;7310646;19;130236;-38
2022/10/18 06:18:23;;;;;;;;;;;;;;;21.57;65.43;100308.28;7312806;19;130352;-41
2022/10/18 06:20:48;;;;;;;;;;;;;;;21.58;65.32;100310.78;7312021;19;129356;-38
2022/10/18 06:23:14;;;;;;;;;;;;;;;21.61;65.51;100314.94;7311709;19;129773;-40
2022/10/18 06:25:39;;;;;;;;;;;;;;;21.58;65.77;100310.78;7308766;19;131033;-38
2022/10/18 06:28:04;;;;;;;;;;;;;;;21.60;65.31;100314.09;7310934;19;129540;-38
2022/10/18 06:30:30;;;;;;;;;;;;;;;21.61;65.08;100312.31;7311981;19;129009;-40
2022/10/18 06:32:58;;;;;;;;;;;;;;;21.60;65.04;100308.88;7312602;19;129484;-38
2022/10/18 06:35:23;;;;;;;;;;;;;;;21.59;64.84;100298.53;7311829;19;130474;-39
2022/10/18 06:37:48;;;;;;;;;;;;;;;21.58;65.47;100292.47;7307996;19;129955;-38
2022/10/18 06:40:13;;;;;;;;;;;;;;;21.60;65.17;100289.75;7312890;19;129352;-40
2022/10/18 06:42:39;;;;;;;;;;;;;;;21.59;65.70;100307.22;7310427;19;128832;-37
2022/10/18 06:45:04;;;;;;;;;;;;;;;21.59;65.29;100317.69;7312708;19;129168;-40
2022/10/18 06:47:30;;;;;;;;;;;;;;;21.56;65.04;100312.69;7310000;19;130969;-39
2022/10/18 06:49:55;;;;;;;;;;;;;;;21.60;64.91;100323.75;7311993;19;130291;-38
2022/10/18 06:52:24;;;;;;;;;;;;;;;21.60;64.98;100329.78;7310760;19;128996;-39
2022/10/18 06:54:49;;;;;;;;;;;;;;;21.58;65.20;100331.72;7312999;19;131132;-39
2022/10/18 06:57:14;;;;;;;;;;;;;;;21.59;64.97;100328.16;7308626;19;130539;-40
2022/10/18 06:59:40;;;;;;;;;;;;;;;21.58;65.09;100329.09;7311840;19;129167;-40
2022/10/18 07:02:05;;;;;;;;;;;;;;;21.60;65.21;100328.97;7311630;19;129120;-37
2022/10/18 07:04:30;;;;;;;;;;;;;;;21.59;64.84;100330.75;7311650;19;129703;-37
2022/10/18 07:06:55;;;;;;;;;;;;;;;21.59;65.04;100328.16;7309941;19;129210;-38
2022/10/18 07:09:21;;;;;;;;;;;;;;;21.62;64.53;100330.50;7309336;19;129103;-39
2022/10/18 07:11:46;;;;;;;;;;;;;;;21.62;65.21;100324.44;7310429;19;129043;-38
2022/10/18 07:14:11;;;;;;;;;;;;;;;21.57;65.03;100313.50;7311303;19;129390;-39
2022/10/18 07:16:36;;;;;;;;;;;;;;;21.60;64.87;100319.34;7308214;19;131184;-38
2022/10/18 07:19:02;;;;;;;;;;;;;;;21.56;65.66;100323.16;7311004;19;130053;-38
2022/10/18 07:21:27;;;;;;;;;;;;;;;21.57;64.93;100324.81;7305102;19;128877;-37
2022/10/18 07:23:53;;;;;;;;;;;;;;;21.55;65.43;100329.31;7308215;19;130599;-40
2022/10/18 07:26:21;;;;;;;;;;;;;;;21.59;65.04;100338.63;7309869;19;129287;-39
2022/10/18 07:28:48;;;;;;;;;;;;;;;21.63;64.74;100337.44;7310141;19;128824;-37
2022/10/18 07:31:14;;;;;;;;;;;;;;;21.64;64.37;100339.09;7310188;19;129151;-39
2022/10/18 07:33:41;;;;;;;;;;;;;;;21.58;65.61;100331.72;7311451;19;130133;-39
2022/10/18 07:36:07;;;;;;;;;;;;;;;21.65;64.64;100338.13;7314810;19;130251;-39
2022/10/18 07:38:33;;;;;;;;;;;;;;;21.62;65.66;100321.81;7316973;19;128953;-38
2022/10/18 07:40:59;;;;;;;;;;;;;;;21.59;64.89;100316.84;7317304;19;129587;-40
2022/10/18 07:43:24;;;;;;;;;;;;;;;21.56;65.41;100317.94;7317473;19;131130;-38
2022/10/18 07:45:50;;;;;;;;;;;;;;;21.61;65.18;100321.00;7314311;19;130771;-39
2022/10/18 07:48:15;;;;;;;;;;;;;;;21.58;65.30;100320.41;7314502;19;129830;-37
2022/10/18 07:50:40;;;;;;;;;;;;;;;21.59;64.94;100325.53;7316905;19;128945;-39
2022/10/18 07:53:06;;;;;;;;;;;;;;;21.57;65.68;100319.59;7315223;19;129012;-40
2022/10/18 07:55:31;;;;;;;;;;;;;;;21.50;65.30;100310.53;7315719;19;129231;-38
2022/10/18 07:57:58;;;;;;;;;;;;;;;21.47;65.06;100310.78;7314883;19;129313;-36
2022/10/18 08:00:23;;;;;;;;;;;;;;;21.59;65.11;100327.31;7314462;19;129078;-38
2022/10/18 08:02:54;;;;;;;;;;;;;;;21.57;65.23;100323.97;7317288;19;129109;-38
2022/10/18 08:05:19;;;;;;;;;;;;;;;21.50;64.87;100307.13;7315234;19;130405;-39
2022/10/18 08:07:44;;;;;;;;;;;;;;;21.61;65.17;100321.00;7316243;19;129232;-40
2022/10/18 08:10:10;;;;;;;;;;;;;;;21.58;65.44;100305.56;7315991;19;129613;-40
2022/10/18 08:12:35;;;;;;;;;;;;;;;21.59;64.81;100304.59;7316024;19;129681;-36
2022/10/18 08:15:00;;;;;;;;;;;;;;;21.61;65.01;100315.78;7315675;19;129593;-39
2022/10/18 08:17:25;;;;;;;;;;;;;;;21.55;65.41;100305.78;7315134;19;129045;-38
2022/10/18 08:19:50;;;;;;;;;;;;;;;21.62;64.88;100317.44;7315312;19;129161;-40
2022/10/18 08:22:16;;;;;;;;;;;;;;;21.48;65.02;100294.16;7314639;19;130198;-39
2022/10/18 08:24:41;;;;;;;;;;;;;;;21.57;65.28;100311.72;7319112;19;130354;-41
2022/10/18 08:27:06;;;;;;;;;;;;;;;21.50;65.01;100271.31;7312281;19;129238;-39
2022/10/18 08:29:32;;;;;;;;;;;;;;;21.59;64.93;100281.03;7318290;19;129327;-38
2022/10/18 08:31:57;;;;;;;;;;;;;;;21.59;65.46;100283.66;7316264;19;130246;-40
2022/10/18 08:34:22;;;;;;;;;;;;;;;21.59;65.28;100280.19;7316696;19;129765;-40
2022/10/18 08:36:47;;;;;;;;;;;;;;;21.61;64.82;100268.69;7314753;19;129491;-40
2022/10/18 08:39:12;;;;;;;;;;;;;;;21.60;64.64;100260.94;7316215;19;129040;-39
2022/10/18 08:41:47;;;;;;;;;;;;;;;21.58;65.35;100266.31;7315079;19;130161;-38
2022/10/18 08:44:16;;;;;;;;;;;;;;;21.59;64.66;100265.34;7316811;19;131030;-39
2022/10/18 08:46:46;;;;;;;;;;;;;;;21.57;64.99;100254.16;7314600;19;129963;-36
2022/10/18 08:49:34;;;;;;;;;;;;;;;21.61;65.50;100242.50;7313037;19;129814;-39
2022/10/18 08:52:00;;;;;;;;;;;;;;;21.61;65.16;100245.13;7313789;19;129225;-39
2022/10/18 08:54:33;;;;;;;;;;;;;;;21.61;65.12;100242.50;7314992;19;129224;-39
2022/10/18 08:57:00;;;;;;;;;;;;;;;21.61;65.20;100247.75;7313996;19;131002;-39
2022/10/18 08:59:28;;;;;;;;;;;;;;;21.60;65.29;100240.84;7315411;19;129137;-39
2022/10/18 09:02:11;;;;;;;;;;;;;;;21.58;65.54;100244.53;7316697;19;130411;-39
2022/10/18 09:04:42;;;;;;;;;;;;;;;21.53;65.06;100244.09;7315541;19;131264;-38
2022/10/18 09:07:17;;;;;;;;;;;;;;;21.58;65.75;100244.53;7314617;19;129378;-40
2022/10/18 09:10:05;;;;;;;;;;;;;;;21.55;65.02;100247.41;7314602;19;129013;-36
2022/10/18 09:12:34;;;;;;;;;;;;;;;21.59;65.17;100239.19;7312363;19;130493;-37
2022/10/18 09:15:17;;;;;;;;;;;;;;;21.60;65.67;100230.38;7316489;19;129580;-40
2022/10/18 09:17:57;;;;;;;;;;;;;;;21.59;65.43;100236.56;7311487;19;128940;-38
2022/10/18 09:20:46;;;;;;;;;;;;;;;21.58;64.82;100234.91;7313668;19;129082;-39
2022/10/18 09:23:25;;;;;;;;;;;;;;;21.60;65.06;100240.84;7315128;19;129826;-40
2022/10/18 09:26:05;;;;;;;;;;;;;;;21.62;65.44;100238.94;7314177;19;129677;-39
2022/10/18 09:28:33;;;;;;;;;;;;;;;21.56;65.36;100218.50;7313365;19;129554;-38
2022/10/18 09:31:07;;;;;;;;;;;;;;;21.58;65.00;100227.06;7315111;19;129146;-37
2022/10/18 09:33:52;;;;;;;;;;;;;;;21.55;65.46;100211.59;7315157;19;129544;-39
2022/10/18 09:36:19;;;;;;;;;;;;;;;21.51;65.29;100193.66;7313020;19;129515;-38
2022/10/18 09:38:49;;;;;;;;;;;;;;;21.58;65.77;100211.38;7315136;19;129168;-38
2022/10/18 09:41:19;;;;;;;;;;;;;;;21.57;65.55;100204.44;7315248;19;130245;-40
2022/10/18 09:43:54;;;;;;;;;;;;;;;21.59;65.62;100205.16;7312429;19;129393;-40
2022/10/18 09:46:21;;;;;;;;;;;;;;;21.59;65.40;100201.72;7315270;19;130503;-38
2022/10/18 09:48:55;;;;;;;;;;;;;;;21.59;65.37;100197.31;7314350;19;129988;-39
2022/10/18 09:51:24;;;;;;;;;;;;;;;21.60;65.50;100188.50;7312999;19;128916;-38
2022/10/18 09:54:04;;;;;;;;;;;;;;;21.59;65.03;100188.63;7314848;19;129481;-40
2022/10/18 09:56:56;;;;;;;;;;;;;;;21.61;65.54;100186.72;7311415;19;130345;-38
2022/10/18 09:59:32;;;;;;;;;;;;;;;21.57;65.25;100183.53;7311699;19;128968;-38
2022/10/18 10:01:57;;;;;;;;;;;;;;;21.57;64.93;100183.53;7314089;19;129037;-40
2022/10/18 10:04:23;;;;;;;;;;;;;;;21.57;65.52;100183.53;7313865;19;129366;-40
2022/10/18 10:06:49;;;;;;;;;;;;;;;21.58;65.29;100169.50;7312392;19;130271;-39
2022/10/18 10:09:15;;;;;;;;;;;;;;;21.56;65.76;100171.41;7310531;19;128948;-38
2022/10/18 10:11:45;;;;;;;;;;;;;;;21.55;65.62;100161.88;7312274;19;130511;-38
2022/10/18 10:14:16;;;;;;;;;;;;;;;21.60;65.77;100162.34;7313906;19;129506;-37
2022/10/18 10:16:52;;;;;;;;;;;;;;;21.60;64.91;100158.91;7312645;19;129653;-39
2022/10/18 10:19:19;;;;;;;;;;;;;;;21.59;64.93;100171.16;7313794;19;128949;-39
2022/10/18 10:21:46;;;;;;;;;;;;;;;21.59;65.31;100171.16;7313727;19;128906;-39
2022/10/18 10:24:25;;;;;;;;;;;;;;;21.61;65.05;100173.63;7312916;19;129941;-38
2022/10/18 10:26:57;;;;;;;;;;;;;;;21.57;65.75;100209.69;7310096;19;129529;-38
2022/10/18 10:29:47;;;;;;;;;;;;;;;21.58;65.43;100239.31;7310855;19;129187;-38
2022/10/18 10:32:13;;;;;;;;;;;;;;;21.60;64.96;100230.38;7312205;19;128952;-39
2022/10/18 10:34:39;;;;;;;;;;;;;;;21.48;65.38;100215.69;7311906;19;130585;-38
2022/10/18 10:37:22;;;;;;;;;;;;;;;21.58;65.60;100232.31;7309530;19;130377;-37
2022/10/18 10:40:05;;;;;;;;;;;;;;;21.59;64.91;100233.09;7312397;19;128920;-37
2022/10/18 10:42:32;;;;;;;;;;;;;;;21.58;65.12;100248.00;7313492;19;129187;-41
2022/10/18 10:44:57;;;;;;;;;;;;;;;21.60;65.34;100258.34;7312002;19;129239;-39
2022/10/18 10:47:31;;;;;;;;;;;;;;;21.51;64.86;100265.13;7310673;19;129221;-40
2022/10/18 10:49:56;;;;;;;;;;;;;;;21.58;65.38;100284.63;7311154;19;130601;-38
2022/10/18 10:52:26;;;;;;;;;;;;;;;21.54;65.91;100298.91;7311263;19;131373;-38
2022/10/18 10:54:52;;;;;;;;;;;;;;;21.57;65.14;100330.03;7313023;19;131420;-38
2022/10/18 10:57:26;;;;;;;;;;;;;;;21.59;65.45;100306.38;7309481;19;131168;-41
2022/10/18 10:59:53;;;;;;;;;;;;;;;21.58;65.30;100305.56;7313212;19;128864;-39
2022/10/18 11:02:31;;;;;;;;;;;;;;;21.58;65.77;100294.25;7310501;19;129284;-40
2022/10/18 11:05:14;;;;;;;;;;;;;;;21.50;65.31;100266.06;7313805;19;130440;-40
2022/10/18 11:07:42;;;;;;;;;;;;;;;21.60;65.32;100276.66;7310709;19;134957;-39
2022/10/18 11:10:10;;;;;;;;;;;;;;;21.57;65.43;100262.00;7318141;19;129208;-41
2022/10/18 11:12:37;;;;;;;;;;;;;;;21.59;65.02;100254.88;7318900;19;129160;-40
2022/10/18 11:15:08;;;;;;;;;;;;;;;21.61;64.99;100245.13;7318053;19;131265;-38
2022/10/18 11:17:53;;;;;;;;;;;;;;;21.59;65.50;100246.19;7316315;19;130635;-36
2022/10/18 11:20:22;;;;;;;;;;;;;;;21.60;65.50;100260.94;7319808;19;129382;-38
2022/10/18 11:23:06;;;;;;;;;;;;;;;21.59;65.07;100280.19;7318877;19;130133;-40
2022/10/18 11:25:34;;;;;;;;;;;;;;;21.60;64.92;100259.16;7317612;19;130160;-39
2022/10/18 11:27:59;;;;;;;;;;;;;;;21.57;65.38;100277.72;7317015;19;129840;-39
2022/10/18 11:30:33;;;;;;;;;;;;;;;21.59;65.36;100281.03;7317333;19;128930;-39
2022/10/18 11:33:17;;;;;;;;;;;;;;;21.59;65.49;100267.97;7318710;19;129198;-40
2022/10/18 11:35:48;;;;;;;;;;;;;;;21.58;65.02;100302.09;7316676;19;132495;-40
2022/10/18 11:38:34;;;;;;;;;;;;;;;21.58;64.96;100289.88;7316535;19;130496;-39
2022/10/18 11:41:18;;;;;;;;;;;;;;;21.61;64.86;100276.53;7315671;19;130529;-38
2022/10/18 11:43:51;;;;;;;;;;;;;;;21.48;65.30;100268.00;7319145;19;129270;-39
2022/10/18 11:46:34;;;;;;;;;;;;;;;21.59;65.67;100288.06;7317511;19;130167;-40
2022/10/18 11:49:06;;;;;;;;;;;;;;;21.59;65.06;100286.28;7317458;19;129525;-39
2022/10/18 11:51:43;;;;;;;;;;;;;;;21.56;65.46;100297.00;7316802;19;128928;-39
2022/10/18 11:54:08;;;;;;;;;;;;;;;21.57;65.62;100282.94;7318412;19;129628;-41
2022/10/18 11:56:41;;;;;;;;;;;;;;;21.57;65.27;100296.03;7316692;19;130021;-39
2022/10/18 11:59:22;;;;;;;;;;;;;;;21.55;65.25;100300.53;7318150;19;130888;-40
2022/10/18 12:02:11;;;;;;;;;;;;;;;21.59;65.46;100309.81;7316322;19;129320;-38
2022/10/18 12:04:40;;;;;;;;;;;;;;;21.58;65.07;100308.19;7316455;19;128930;-39
2022/10/18 12:07:06;;;;;;;;;;;;;;;21.44;65.43;100297.97;7314211;19;129454;-37
2022/10/18 12:09:35;;;;;;;;;;;;;;;21.57;65.71;100303.88;7313116;19;131363;-39
2022/10/18 12:12:05;;;;;;;;;;;;;;;21.59;65.07;100316.84;7317858;19;130512;-38
2022/10/18 12:14:45;;;;;;;;;;;;;;;21.56;65.18;100317.94;7318110;19;129432;-40
2022/10/18 12:17:15;;;;;;;;;;;;;;;21.47;65.58;100302.94;7314507;19;129104;-39
2022/10/18 12:19:41;;;;;;;;;;;;;;;21.58;65.22;100316.03;7316330;19;130292;-39
2022/10/18 12:22:15;;;;;;;;;;;;;;;21.47;65.24;100297.72;7317445;19;129079;-39
2022/10/18 12:24:40;;;;;;;;;;;;;;;21.59;65.63;100312.44;7316456;19;128941;-38
2022/10/18 12:27:10;;;;;;;;;;;;;;;21.56;65.52;100312.69;7312452;19;130378;-38
2022/10/18 12:29:39;;;;;;;;;;;;;;;21.57;65.10;100316.97;7314606;19;130358;-36
2022/10/18 12:32:13;;;;;;;;;;;;;;;21.60;65.72;100321.94;7316779;19;129061;-39